Time;durP1;ratioP1;P1;durP2;ratioP2;P2;SDS_P1;SDS_P2;PMS_P1;PMS_P2;Temp;Humidity;BMP_temperature;BMP_pressure;BME280_temperature;BME280_humidity;BME280_pressure;Samples;Min_cycle;Max_cycle;Signal;HPM_P1;HPM_P2
2022/06/25 00:01:15;;;;;;;2.03;1.50;;;18.70;99.90;;;;;;5073860;28;20212;-61
2022/06/25 00:03:43;;;;;;;1.85;1.20;;;18.60;99.90;;;;;;5073097;28;20619;-59
2022/06/25 00:06:11;;;;;;;2.83;1.27;;;18.50;99.90;;;;;;5073327;28;20228;-60
2022/06/25 00:08:39;;;;;;;2.83;1.15;;;18.30;99.90;;;;;;5078159;28;20297;-60
2022/06/25 00:11:06;;;;;;;2.83;0.95;;;18.00;99.90;;;;;;5076900;28;20205;-60
2022/06/25 00:13:33;;;;;;;2.65;1.00;;;17.90;99.90;;;;;;5077365;28;20205;-60
2022/06/25 00:16:01;;;;;;;1.50;1.20;;;17.70;99.90;;;;;;5077179;28;20692;-60
2022/06/25 00:18:28;;;;;;;2.25;1.15;;;17.60;99.90;;;;;;5077068;28;20205;-60
2022/06/25 00:20:55;;;;;;;2.22;1.20;;;17.60;99.90;;;;;;5077207;28;20211;-61
2022/06/25 00:23:23;;;;;;;4.10;1.30;;;17.60;99.90;;;;;;5077015;28;20207;-60
2022/06/25 00:25:49;;;;;;;1.92;1.23;;;17.60;99.90;;;;;;5076868;28;20727;-60
2022/06/25 00:28:16;;;;;;;1.30;1.10;;;17.60;99.90;;;;;;5077307;28;20205;-60
2022/06/25 00:30:43;;;;;;;3.65;1.55;;;17.60;99.90;;;;;;5076751;28;20216;-60
2022/06/25 00:33:09;;;;;;;1.88;1.13;;;17.50;99.90;;;;;;5076299;28;20315;-60
2022/06/25 00:35:36;;;;;;;1.85;1.35;;;17.50;99.90;;;;;;5075663;28;20228;-60
2022/06/25 00:38:03;;;;;;;3.33;1.50;;;17.50;99.90;;;;;;5076384;28;20208;-60
2022/06/25 00:40:31;;;;;;;3.08;1.30;;;17.50;99.90;;;;;;5076389;28;20208;-60
2022/06/25 00:42:58;;;;;;;1.75;1.10;;;17.50;99.90;;;;;;5076078;28;20707;-60
2022/06/25 00:45:24;;;;;;;4.88;1.50;;;17.40;99.90;;;;;;5075778;28;20228;-60
2022/06/25 00:47:51;;;;;;;3.47;1.40;;;17.50;99.90;;;;;;5075864;28;20211;-60
2022/06/25 00:50:19;;;;;;;1.92;1.45;;;17.50;99.90;;;;;;5075887;28;20300;-61
2022/06/25 00:52:52;;;;;;;2.00;1.30;;;17.60;99.90;;;;;;5076162;28;20205;-61
2022/06/25 00:55:23;;;;;;;2.20;1.70;;;17.60;99.90;;;;;;5075886;28;20224;-60
2022/06/25 00:57:53;;;;;;;2.42;1.35;;;17.50;99.90;;;;;;5076189;28;20232;-61
2022/06/25 01:00:20;;;;;;;1.50;1.27;;;17.50;99.90;;;;;;5075927;28;20205;-61
2022/06/25 01:02:47;;;;;;;3.30;1.67;;;17.50;99.90;;;;;;5075998;28;20699;-61
2022/06/25 01:05:16;;;;;;;5.53;1.70;;;17.50;99.90;;;;;;5075065;28;20240;-60
2022/06/25 01:07:45;;;;;;;1.67;1.35;;;17.50;99.90;;;;;;5076544;28;20209;-61
2022/06/25 01:10:13;;;;;;;1.40;1.30;;;17.50;99.90;;;;;;5076037;28;20216;-61
2022/06/25 01:12:40;;;;;;;2.83;1.27;;;17.60;99.90;;;;;;5076105;28;20300;-61
2022/06/25 01:15:14;;;;;;;3.42;1.60;;;17.60;99.90;;;;;;5074894;28;20653;-60
2022/06/25 01:17:43;;;;;;;16.25;14.73;;;17.60;99.90;;;;;;5075565;28;20216;-60
2022/06/25 01:20:10;;;;;;;4.28;2.35;;;17.50;99.90;;;;;;5074877;28;20307;-60
2022/06/25 01:22:39;;;;;;;2.45;1.20;;;17.50;99.90;;;;;;5075335;28;20204;-60
2022/06/25 01:25:08;;;;;;;3.53;1.50;;;17.50;99.90;;;;;;5074627;28;20221;-60
2022/06/25 01:27:35;;;;;;;2.03;1.55;;;17.50;99.90;;;;;;5074984;28;20209;-60
2022/06/25 01:30:02;;;;;;;1.20;1.10;;;17.40;99.90;;;;;;5075159;28;20208;-60
2022/06/25 01:32:29;;;;;;;1.55;1.30;;;17.40;99.90;;;;;;5075187;28;20216;-61
2022/06/25 01:34:56;;;;;;;1.45;1.20;;;17.40;99.90;;;;;;5074641;28;20267;-60
2022/06/25 01:37:22;;;;;;;3.13;1.20;;;17.40;99.90;;;;;;5075123;28;20275;-61
2022/06/25 01:39:54;;;;;;;4.17;1.40;;;17.40;99.90;;;;;;5075276;28;20212;-60
2022/06/25 01:45:01;;;;;;;3.65;1.40;;;17.30;99.90;;;;;;5073592;28;20221;-61
2022/06/25 01:47:28;;;;;;;3.00;1.20;;;17.30;99.90;;;;;;5074639;28;20200;-61
2022/06/25 01:49:54;;;;;;;2.72;1.25;;;17.30;99.90;;;;;;5074665;28;20628;-60
2022/06/25 01:52:21;;;;;;;5.07;1.38;;;17.20;99.90;;;;;;5074613;28;20209;-60
2022/06/25 01:54:48;;;;;;;3.60;1.50;;;17.20;99.90;;;;;;5074300;28;20708;-60
2022/06/25 01:57:16;;;;;;;1.45;1.27;;;17.10;99.90;;;;;;5074695;28;20863;-60
2022/06/25 01:59:45;;;;;;;2.20;1.40;;;17.10;99.90;;;;;;5075049;28;20216;-61
2022/06/25 02:02:11;;;;;;;2.08;1.30;;;17.10;99.90;;;;;;5074673;28;20209;-61
2022/06/25 02:04:38;;;;;;;2.50;1.30;;;17.00;99.90;;;;;;5074350;28;20225;-61
2022/06/25 02:07:05;;;;;;;1.50;1.20;;;17.00;99.90;;;;;;5074776;28;20813;-60
2022/06/25 02:09:32;;;;;;;1.63;1.10;;;17.10;99.90;;;;;;5074929;28;20696;-61
2022/06/25 02:11:59;;;;;;;2.58;1.33;;;17.00;99.90;;;;;;5074487;28;20665;-61
2022/06/25 02:14:27;;;;;;;1.95;1.30;;;16.90;99.90;;;;;;5074421;28;20322;-61
2022/06/25 02:16:54;;;;;;;2.80;1.20;;;17.00;99.90;;;;;;5074657;28;20260;-61
2022/06/25 02:19:21;;;;;;;1.40;1.20;;;16.90;99.90;;;;;;5074341;28;20208;-61
2022/06/25 02:21:48;;;;;;;2.65;1.30;;;16.90;99.90;;;;;;5074401;28;20201;-61
2022/06/25 02:24:14;;;;;;;1.30;1.20;;;16.90;99.90;;;;;;5074153;28;20204;-61
2022/06/25 02:26:41;;;;;;;1.07;0.97;;;16.90;99.90;;;;;;5074780;28;20692;-60
2022/06/25 02:29:08;;;;;;;2.67;1.17;;;16.90;99.90;;;;;;5074888;28;20209;-61
2022/06/25 02:31:36;;;;;;;2.10;1.13;;;16.90;99.90;;;;;;5073770;28;20283;-61
2022/06/25 02:34:03;;;;;;;2.92;1.30;;;16.90;99.90;;;;;;5074798;28;20201;-61
2022/06/25 02:36:29;;;;;;;1.00;1.00;;;16.90;99.90;;;;;;5074868;28;20700;-61
2022/06/25 02:38:56;;;;;;;1.70;1.17;;;16.90;99.90;;;;;;5075217;28;20619;-60
2022/06/25 02:41:23;;;;;;;1.20;1.10;;;16.90;99.90;;;;;;5075251;28;20205;-60
2022/06/25 02:43:49;;;;;;;4.60;1.30;;;16.90;99.90;;;;;;5074353;28;20205;-61
2022/06/25 02:46:16;;;;;;;1.20;1.10;;;16.80;99.90;;;;;;5074477;28;20232;-61
2022/06/25 02:48:44;;;;;;;2.10;1.30;;;16.80;99.90;;;;;;5075335;28;20254;-60
2022/06/25 02:51:11;;;;;;;1.88;1.63;;;16.80;99.90;;;;;;5074667;28;20205;-61
2022/06/25 02:53:38;;;;;;;2.00;1.10;;;16.80;99.90;;;;;;5074512;28;20239;-61
2022/06/25 02:58:55;;;;;;;2.63;1.20;;;16.80;99.90;;;;;;5074042;28;20201;-61
2022/06/25 03:01:22;;;;;;;2.67;1.10;;;16.70;99.90;;;;;;5074718;28;20415;-61
2022/06/25 03:03:51;;;;;;;1.20;1.08;;;16.70;99.90;;;;;;5074172;28;20208;-61
2022/06/25 03:06:18;;;;;;;2.28;1.40;;;16.70;99.90;;;;;;5074599;28;20248;-61
2022/06/25 03:08:45;;;;;;;2.33;1.63;;;16.70;99.90;;;;;;5074448;28;20215;-61
2022/06/25 03:11:12;;;;;;;2.20;1.20;;;16.70;99.90;;;;;;5074018;28;20688;-61
2022/06/25 03:13:39;;;;;;;2.85;1.15;;;16.70;99.90;;;;;;5073233;28;20208;-61
2022/06/25 03:16:06;;;;;;;2.47;1.30;;;16.70;99.90;;;;;;5072637;28;20239;-61
2022/06/25 03:18:33;;;;;;;1.20;1.08;;;16.70;99.90;;;;;;5073018;28;20233;-61
2022/06/25 03:21:01;;;;;;;1.75;1.30;;;16.70;99.90;;;;;;5073207;28;20212;-61
2022/06/25 03:23:28;;;;;;;1.27;1.00;;;16.70;99.90;;;;;;5073312;28;20201;-60
2022/06/25 03:25:55;;;;;;;2.08;1.38;;;16.70;99.90;;;;;;5073040;28;20598;-61
2022/06/25 03:28:22;;;;;;;3.08;1.20;;;16.60;99.90;;;;;;5075128;28;20569;-61
2022/06/25 03:30:49;;;;;;;3.30;1.30;;;16.60;99.90;;;;;;5074902;28;20373;-61
2022/06/25 03:33:16;;;;;;;3.33;1.77;;;16.60;99.90;;;;;;5073398;28;20238;-61
2022/06/25 03:35:43;;;;;;;4.13;1.10;;;16.60;99.90;;;;;;5072619;28;20236;-61
2022/06/25 03:38:11;;;;;;;6.20;1.00;;;16.60;99.90;;;;;;5073542;28;20351;-61
2022/06/25 03:40:38;;;;;;;4.20;1.40;;;16.60;99.90;;;;;;5072932;28;20216;-61
2022/06/25 03:43:05;;;;;;;3.40;1.30;;;16.60;99.90;;;;;;5073204;28;20215;-61
2022/06/25 03:45:31;;;;;;;1.97;1.13;;;16.70;99.90;;;;;;5073489;28;20247;-61
2022/06/25 03:47:58;;;;;;;1.57;1.20;;;16.70;99.90;;;;;;5074919;28;20683;-61
2022/06/25 03:50:25;;;;;;;2.87;1.20;;;16.80;99.90;;;;;;5075267;28;20215;-61
2022/06/25 03:52:52;;;;;;;5.38;1.40;;;16.80;99.90;;;;;;5074802;28;20225;-61
2022/06/25 03:55:20;;;;;;;2.20;1.10;;;16.80;99.90;;;;;;5075509;28;20233;-61
2022/06/25 03:57:47;;;;;;;3.83;1.30;;;16.80;99.90;;;;;;5074082;28;20220;-61
2022/06/25 04:00:15;;;;;;;2.00;1.27;;;16.80;99.90;;;;;;5074357;28;20204;-61
2022/06/25 04:02:42;;;;;;;2.42;1.63;;;16.80;99.90;;;;;;5075313;28;20205;-61
2022/06/25 04:05:09;;;;;;;4.30;1.40;;;16.80;99.90;;;;;;5074654;28;20225;-61
2022/06/25 04:07:35;;;;;;;3.30;1.73;;;16.70;99.90;;;;;;5075310;28;20229;-61
2022/06/25 04:10:03;;;;;;;2.95;1.48;;;16.70;99.90;;;;;;5076266;28;20619;-61
2022/06/25 04:12:31;;;;;;;3.93;1.70;;;16.80;99.90;;;;;;5077155;28;20613;-61
2022/06/25 04:14:58;;;;;;;5.18;1.77;;;16.80;99.90;;;;;;5077611;28;20725;-61
2022/06/25 04:17:25;;;;;;;2.95;1.60;;;16.80;99.90;;;;;;5074198;28;20240;-61
2022/06/25 04:19:51;;;;;;;4.53;1.40;;;16.80;99.90;;;;;;5073251;28;20201;-61
2022/06/25 04:22:18;;;;;;;3.43;1.37;;;16.70;99.90;;;;;;5073201;28;20205;-61
2022/06/25 04:24:45;;;;;;;3.03;1.50;;;16.60;99.90;;;;;;5072486;28;20225;-61
2022/06/25 04:29:03;;;;;;;3.73;1.30;;;16.70;99.90;;;;;;5073091;28;20240;-61
2022/06/25 04:29:59;;;;;;;4.10;1.30;;;16.70;99.90;;;;;;5072186;28;20205;-61
2022/06/25 04:32:26;;;;;;;2.40;1.20;;;16.80;99.90;;;;;;5072769;28;20208;-61
2022/06/25 04:34:53;;;;;;;2.97;1.30;;;16.90;99.90;;;;;;5072700;28;20311;-61
2022/06/25 04:37:19;;;;;;;1.70;1.23;;;16.90;99.90;;;;;;5072652;28;20601;-61
2022/06/25 04:39:46;;;;;;;3.67;1.03;;;16.90;99.90;;;;;;5073128;28;20581;-61
2022/06/25 04:42:13;;;;;;;2.17;1.00;;;16.90;99.90;;;;;;5072622;28;20205;-61
2022/06/25 04:44:39;;;;;;;1.40;1.20;;;17.10;99.90;;;;;;5072128;28;20225;-61
2022/06/25 04:47:09;;;;;;;2.00;1.10;;;17.20;99.90;;;;;;5072687;28;20278;-61
2022/06/25 04:49:35;;;;;;;1.88;0.98;;;18.10;99.90;;;;;;5074238;28;20209;-62
2022/06/25 04:52:02;;;;;;;1.85;1.27;;;20.00;99.90;;;;;;5072633;28;20201;-61
2022/06/25 04:54:29;;;;;;;4.60;1.10;;;22.00;99.90;;;;;;5075465;28;20233;-61
2022/06/25 04:56:56;;;;;;;2.35;0.90;;;24.00;99.90;;;;;;5076575;28;20209;-61
2022/06/25 04:59:23;;;;;;;1.30;0.70;;;25.80;99.90;;;;;;5076144;28;20205;-61
2022/06/25 05:01:49;;;;;;;3.80;0.70;;;27.20;99.90;;;;;;5078289;28;20212;-61
2022/06/25 05:04:17;;;;;;;1.30;0.80;;;28.30;99.90;;;;;;5077755;28;20208;-61
2022/06/25 05:06:44;;;;;;;2.80;0.60;;;29.30;99.90;;;;;;5077496;28;20212;-61
2022/06/25 05:09:11;;;;;;;1.35;0.60;;;30.00;99.90;;;;;;5078403;28;20205;-61
2022/06/25 05:11:38;;;;;;;2.53;0.60;;;30.60;99.10;;;;;;5077405;28;20624;-61
2022/06/25 05:14:05;;;;;;;3.80;0.55;;;31.20;96.20;;;;;;5078458;28;20209;-61
2022/06/25 05:16:32;;;;;;;1.45;0.60;;;31.60;93.90;;;;;;5079392;28;20228;-62
2022/06/25 05:18:58;;;;;;;1.17;0.50;;;31.80;92.20;;;;;;5076503;28;20229;-62
2022/06/25 05:21:28;;;;;;;1.95;0.80;;;31.70;91.90;;;;;;5076322;28;20209;-62
2022/06/25 05:23:54;;;;;;;1.20;0.70;;;31.90;91.20;;;;;;5076559;28;20213;-62
2022/06/25 05:26:21;;;;;;;1.80;0.52;;;32.30;88.60;;;;;;5076833;28;20601;-64
2022/06/25 05:28:48;;;;;;;4.13;0.63;;;32.60;86.30;;;;;;5077534;28;20212;-62
2022/06/25 05:31:15;;;;;;;2.10;0.70;;;32.80;84.20;;;;;;5077645;28;20220;-61
2022/06/25 05:33:41;;;;;;;2.70;0.88;;;33.00;83.70;;;;;;5078015;28;20688;-62
2022/06/25 05:36:08;;;;;;;1.55;0.68;;;33.50;81.30;;;;;;5077386;28;20227;-61
2022/06/25 05:38:36;;;;;;;4.15;0.70;;;34.00;79.20;;;;;;5078231;28;20707;-61
2022/06/25 05:41:07;;;;;;;2.05;0.50;;;34.50;76.70;;;;;;5076044;28;20258;-62
2022/06/25 05:43:34;;;;;;;3.72;0.52;;;35.00;73.00;;;;;;5075747;28;20391;-61
2022/06/25 05:46:01;;;;;;;1.35;0.63;;;35.40;70.80;;;;;;5075085;28;20228;-61
2022/06/25 05:48:28;;;;;;;2.72;0.85;;;35.60;70.20;;;;;;5075255;28;20197;-61
2022/06/25 05:50:55;;;;;;;1.27;0.60;;;36.10;67.90;;;;;;5074781;28;20213;-61
2022/06/25 05:53:22;;;;;;;2.38;0.52;;;36.70;65.20;;;;;;5075132;28;20216;-62
2022/06/25 05:55:50;;;;;;;3.20;1.02;;;37.20;62.60;;;;;;5075108;28;20225;-61
2022/06/25 05:58:18;;;;;;;4.13;1.33;;;37.80;60.30;;;;;;5074958;28;20311;-62
2022/06/25 06:00:45;;;;;;;2.40;1.55;;;38.00;59.40;;;;;;5074292;28;20558;-61
2022/06/25 06:03:12;;;;;;;3.22;2.70;;;38.50;57.80;;;;;;5074763;28;20228;-62
2022/06/25 06:05:39;;;;;;;2.03;0.85;;;38.40;57.10;;;;;;5074027;28;20713;-62
2022/06/25 06:08:06;;;;;;;4.18;1.52;;;38.10;56.50;;;;;;5075735;28;20209;-62
2022/06/25 06:10:33;;;;;;;0.85;0.70;;;37.80;57.10;;;;;;5074903;28;20212;-62
2022/06/25 06:13:01;;;;;;;2.08;1.55;;;37.10;57.40;;;;;;5074594;28;20209;-62
2022/06/25 06:15:28;;;;;;;2.42;1.42;;;36.70;58.10;;;;;;5073662;28;20625;-61
2022/06/25 06:17:55;;;;;;;2.97;0.60;;;36.80;58.10;;;;;;5074096;28;20244;-61
2022/06/25 06:20:21;;;;;;;3.75;3.33;;;37.10;57.70;;;;;;5074277;28;20209;-61
2022/06/25 06:22:48;;;;;;;1.90;1.13;;;37.70;56.30;;;;;;5074093;28;20201;-62
2022/06/25 06:25:15;;;;;;;2.15;0.80;;;38.40;55.30;;;;;;5073831;28;20667;-62
2022/06/25 06:27:42;;;;;;;2.00;0.90;;;39.00;54.10;;;;;;5074265;28;20207;-62
2022/06/25 06:30:11;;;;;;;3.00;1.27;;;38.80;54.00;;;;;;5074049;28;20224;-62
2022/06/25 06:32:38;;;;;;;2.95;0.60;;;38.00;54.90;;;;;;5074567;28;20205;-61
2022/06/25 06:35:06;;;;;;;0.52;0.50;;;38.20;53.80;;;;;;5074528;28;20731;-61
2022/06/25 06:37:33;;;;;;;1.65;0.77;;;37.50;54.40;;;;;;5074637;28;20213;-61
2022/06/25 06:40:00;;;;;;;1.73;1.10;;;37.00;55.20;;;;;;5074770;28;20254;-61
2022/06/25 06:42:26;;;;;;;3.50;1.58;;;36.60;55.90;;;;;;5073950;28;20207;-62
2022/06/25 06:44:53;;;;;;;4.70;1.20;;;36.00;57.00;;;;;;5073999;28;20232;-61
2022/06/25 06:47:21;;;;;;;2.70;1.63;;;36.50;56.70;;;;;;5074047;28;20595;-62
2022/06/25 06:49:48;;;;;;;1.38;0.70;;;37.30;55.30;;;;;;5074508;28;20228;-62
2022/06/25 06:52:15;;;;;;;2.47;0.90;;;38.30;54.10;;;;;;5073908;28;20580;-62
2022/06/25 06:54:42;;;;;;;3.00;1.00;;;39.30;52.20;;;;;;5073988;28;20225;-62
2022/06/25 06:57:08;;;;;;;0.98;0.60;;;40.40;51.00;;;;;;5073597;28;20196;-62
2022/06/25 06:59:35;;;;;;;2.28;0.70;;;41.20;49.00;;;;;;5073611;28;20228;-62
2022/06/25 07:02:02;;;;;;;1.42;0.70;;;41.80;47.30;;;;;;5074154;28;20204;-63
2022/06/25 07:04:30;;;;;;;2.38;0.85;;;42.40;46.60;;;;;;5073308;28;20228;-62
2022/06/25 07:06:57;;;;;;;1.15;0.60;;;42.70;45.60;;;;;;5073471;28;20204;-62
2022/06/25 07:09:24;;;;;;;1.05;0.65;;;43.00;44.10;;;;;;5073881;28;20208;-64
2022/06/25 07:11:50;;;;;;;2.03;0.65;;;43.30;44.00;;;;;;5074536;28;20581;-62
2022/06/25 07:14:17;;;;;;;0.38;0.38;;;43.80;42.40;;;;;;5075345;28;20294;-63
2022/06/25 07:16:44;;;;;;;1.63;0.95;;;43.90;42.10;;;;;;5074526;28;20207;-64
2022/06/25 07:19:11;;;;;;;2.15;0.68;;;43.20;42.20;;;;;;5074331;28;20255;-64
2022/06/25 07:21:39;;;;;;;2.67;0.40;;;42.20;43.10;;;;;;5074752;28;20326;-63
2022/06/25 07:24:06;;;;;;;1.70;0.80;;;42.10;43.40;;;;;;5074811;28;20212;-63
2022/06/25 07:26:33;;;;;;;0.82;0.45;;;41.60;43.90;;;;;;5074346;28;20211;-62
2022/06/25 07:29:01;;;;;;;0.88;0.40;;;40.80;45.10;;;;;;5074090;28;20597;-63
2022/06/25 07:31:28;;;;;;;4.43;0.60;;;40.70;45.00;;;;;;5074638;28;20302;-63
2022/06/25 07:33:55;;;;;;;1.30;0.70;;;40.90;44.60;;;;;;5075053;28;20616;-63
2022/06/25 07:36:21;;;;;;;1.35;0.73;;;41.10;45.10;;;;;;5075087;28;20225;-63
2022/06/25 07:38:49;;;;;;;3.08;0.50;;;41.60;44.60;;;;;;5076099;28;20227;-64
2022/06/25 07:41:16;;;;;;;1.67;1.00;;;42.30;43.50;;;;;;5075894;28;20216;-64
2022/06/25 07:43:43;;;;;;;1.63;0.60;;;43.00;43.10;;;;;;5076264;28;20211;-64
2022/06/25 07:46:10;;;;;;;0.55;0.50;;;43.60;42.30;;;;;;5076236;28;20228;-63
2022/06/25 07:48:37;;;;;;;0.93;0.65;;;44.00;42.00;;;;;;5076157;28;20204;-63
2022/06/25 07:53:50;;;;;;;2.28;0.60;;;44.70;40.60;;;;;;5075052;28;20254;-63
2022/06/25 07:56:16;;;;;;;1.40;0.70;;;42.00;43.00;;;;;;5074440;28;20228;-62
2022/06/25 07:58:43;;;;;;;1.48;0.70;;;40.70;44.70;;;;;;5074949;28;20252;-63
2022/06/25 08:01:10;;;;;;;2.28;0.60;;;40.30;45.50;;;;;;5074778;28;20200;-64
2022/06/25 08:03:37;;;;;;;1.33;0.68;;;40.20;44.80;;;;;;5075053;28;20201;-62
2022/06/25 08:06:04;;;;;;;2.17;0.63;;;40.10;45.10;;;;;;5074041;28;20311;-62
2022/06/25 08:08:31;;;;;;;2.45;0.73;;;39.90;45.50;;;;;;5075462;28;20673;-63
2022/06/25 08:10:59;;;;;;;2.63;0.90;;;39.70;45.80;;;;;;5074851;28;20211;-64
2022/06/25 08:13:26;;;;;;;1.35;0.60;;;39.70;45.60;;;;;;5075008;28;20204;-62
2022/06/25 08:15:53;;;;;;;1.70;0.60;;;39.40;46.20;;;;;;5074800;28;20331;-63
2022/06/25 08:18:20;;;;;;;3.25;0.90;;;38.70;46.80;;;;;;5074469;28;20231;-63
2022/06/25 08:20:47;;;;;;;2.00;0.98;;;37.50;48.30;;;;;;5074496;28;20599;-63
2022/06/25 08:23:14;;;;;;;2.03;0.80;;;36.20;50.00;;;;;;5074616;28;20215;-63
2022/06/25 08:25:41;;;;;;;1.00;0.85;;;35.00;51.90;;;;;;5074133;28;20221;-62
2022/06/25 08:28:09;;;;;;;1.70;0.85;;;34.00;54.40;;;;;;5074977;28;20212;-63
2022/06/25 08:30:36;;;;;;;2.22;0.90;;;34.40;54.40;;;;;;5078825;28;20676;-63
2022/06/25 08:33:03;;;;;;;1.30;0.77;;;35.80;52.20;;;;;;5078336;28;20204;-62
2022/06/25 08:35:30;;;;;;;2.03;0.85;;;37.60;49.40;;;;;;5078952;28;20225;-62
2022/06/25 08:37:57;;;;;;;2.17;0.73;;;39.00;47.90;;;;;;5078612;28;20707;-63
2022/06/25 08:40:24;;;;;;;1.80;1.00;;;40.20;46.10;;;;;;5079375;28;20700;-62
2022/06/25 08:42:51;;;;;;;2.63;0.98;;;40.50;45.80;;;;;;5078359;28;20224;-62
2022/06/25 08:45:19;;;;;;;1.70;0.85;;;40.90;44.90;;;;;;5077691;28;20228;-62
2022/06/25 08:47:47;;;;;;;2.63;0.60;;;41.30;44.70;;;;;;5078197;28;20325;-62
2022/06/25 08:50:16;;;;;;;3.95;0.90;;;41.60;43.80;;;;;;5078658;28;20200;-62
2022/06/25 08:52:44;;;;;;;1.58;1.02;;;40.90;44.40;;;;;;5077941;28;20211;-61
2022/06/25 08:55:15;;;;;;;4.00;1.25;;;40.40;44.80;;;;;;5077296;28;20232;-60
2022/06/25 08:57:43;;;;;;;3.30;1.30;;;39.50;45.90;;;;;;5077313;28;20208;-61
2022/06/25 09:00:11;;;;;;;3.00;1.00;;;37.90;47.90;;;;;;5076880;28;20256;-61
2022/06/25 09:02:40;;;;;;;1.13;0.70;;;36.50;49.70;;;;;;5075510;28;20295;-61
2022/06/25 09:05:08;;;;;;;3.20;1.13;;;35.10;51.50;;;;;;5075034;28;20259;-60
2022/06/25 09:07:35;;;;;;;3.17;1.13;;;34.00;53.60;;;;;;5077225;28;20270;-65
2022/06/25 09:10:02;;;;;;;4.13;1.10;;;33.10;55.00;;;;;;5079487;28;20684;-65
2022/06/25 09:12:29;;;;;;;1.23;1.05;;;32.40;56.10;;;;;;5077314;28;20587;-66
2022/06/25 09:14:56;;;;;;;2.63;1.15;;;31.90;57.30;;;;;;5077842;28;20244;-65
2022/06/25 09:17:22;;;;;;;2.97;1.00;;;31.40;58.20;;;;;;5078065;28;20204;-65
2022/06/25 09:19:52;;;;;;;2.63;1.10;;;30.80;59.30;;;;;;5078016;28;20225;-66
2022/06/25 09:22:20;;;;;;;1.88;1.27;;;30.30;60.60;;;;;;5078618;28;20208;-67
2022/06/25 09:24:50;;;;;;;1.58;0.88;;;29.90;61.30;;;;;;5076074;28;20243;-66
2022/06/25 09:27:20;;;;;;;2.40;1.00;;;29.50;63.10;;;;;;5075355;28;20217;-65
2022/06/25 09:29:49;;;;;;;1.67;1.10;;;29.30;64.30;;;;;;5075463;28;20248;-62
2022/06/25 09:32:17;;;;;;;2.13;1.05;;;29.00;64.90;;;;;;5075462;28;20213;-63
2022/06/25 09:34:44;;;;;;;3.63;1.00;;;28.80;65.90;;;;;;5075338;28;20232;-65
2022/06/25 09:37:20;;;;;;;3.67;1.30;;;28.70;66.70;;;;;;5075689;28;20205;-65
2022/06/25 09:39:48;;;;;;;3.20;1.27;;;28.50;68.70;;;;;;5073622;28;20303;-61
2022/06/25 09:42:26;;;;;;;1.38;1.02;;;28.50;68.30;;;;;;5073194;28;20209;-61
2022/06/25 09:45:05;;;;;;;1.77;1.30;;;28.40;68.30;;;;;;5073361;28;20268;-62
2022/06/25 09:47:35;;;;;;;2.70;1.30;;;28.40;68.50;;;;;;5073607;28;20236;-61
2022/06/25 09:50:13;;;;;;;2.00;0.88;;;28.30;69.80;;;;;;5073350;28;20209;-61
2022/06/25 09:52:50;;;;;;;1.75;0.93;;;28.10;69.90;;;;;;5073517;28;20213;-60
2022/06/25 09:55:17;;;;;;;3.05;1.92;;;28.00;70.90;;;;;;5073150;28;20752;-61
2022/06/25 09:57:45;;;;;;;2.03;1.13;;;27.80;71.70;;;;;;5073139;28;20254;-60
2022/06/25 10:00:14;;;;;;;1.70;1.15;;;27.80;72.10;;;;;;5072908;28;20221;-60
2022/06/25 10:02:42;;;;;;;3.47;1.48;;;27.70;72.90;;;;;;5072835;28;20209;-61
2022/06/25 10:05:10;;;;;;;3.90;1.20;;;27.30;73.80;;;;;;5072197;28;20224;-62
2022/06/25 10:10:23;;;;;;;2.63;1.20;;;26.70;76.30;;;;;;5073270;28;20284;-60
2022/06/25 10:12:51;;;;;;;3.15;1.35;;;26.80;76.60;;;;;;5072599;28;20673;-60
2022/06/25 10:15:19;;;;;;;4.00;1.40;;;27.10;76.60;;;;;;5072676;28;20233;-60
2022/06/25 10:17:48;;;;;;;4.15;1.50;;;27.40;76.70;;;;;;5072509;28;20653;-61
2022/06/25 10:20:16;;;;;;;1.45;0.88;;;27.60;76.40;;;;;;5072554;28;20236;-60
2022/06/25 10:22:45;;;;;;;1.88;1.23;;;27.80;74.50;;;;;;5072705;28;20213;-60
2022/06/25 10:25:14;;;;;;;2.15;1.20;;;27.80;75.20;;;;;;5072389;28;20224;-60
2022/06/25 10:27:43;;;;;;;4.60;1.80;;;27.80;74.90;;;;;;5072548;28;20715;-61
2022/06/25 10:30:10;;;;;;;1.75;1.30;;;27.80;75.10;;;;;;5072235;28;20668;-61
2022/06/25 10:32:44;;;;;;;1.48;1.20;;;27.90;74.20;;;;;;5072422;28;20221;-61
2022/06/25 10:35:28;;;;;;;2.13;1.40;;;28.10;74.00;;;;;;5071791;28;20228;-61
2022/06/25 10:38:04;;;;;;;3.22;1.23;;;28.20;73.10;;;;;;5072127;28;20243;-60
2022/06/25 10:40:32;;;;;;;2.03;1.00;;;28.20;73.60;;;;;;5072374;28;20225;-62
2022/06/25 10:43:03;;;;;;;1.88;1.15;;;28.30;72.30;;;;;;5072348;28;20209;-63
2022/06/25 10:45:51;;;;;;;1.92;0.98;;;28.30;71.70;;;;;;5072494;28;20267;-61
2022/06/25 10:48:23;;;;;;;1.30;1.08;;;28.30;71.20;;;;;;5073633;28;20213;-59
2022/06/25 10:50:51;;;;;;;2.63;0.90;;;28.10;71.20;;;;;;5073678;28;20212;-60
2022/06/25 10:53:20;;;;;;;2.47;1.40;;;28.10;72.40;;;;;;5072797;28;20707;-60
2022/06/25 10:56:23;;;;;;;2.20;1.30;;;28.00;72.20;;;;;;5073028;28;20221;-60
2022/06/25 10:58:52;;;;;;;1.85;1.00;;;27.60;73.40;;;;;;5073186;28;20219;-60
2022/06/25 11:01:28;;;;;;;1.40;1.17;;;27.50;74.20;;;;;;5073805;28;20232;-60
2022/06/25 11:03:58;;;;;;;3.15;1.30;;;27.50;76.00;;;;;;5073872;28;20213;-60
2022/06/25 11:06:29;;;;;;;1.35;1.02;;;27.50;75.80;;;;;;5073212;28;20299;-60
2022/06/25 11:09:03;;;;;;;2.80;1.30;;;27.70;75.10;;;;;;5073260;28;20266;-60
2022/06/25 11:11:32;;;;;;;2.30;1.40;;;27.80;74.10;;;;;;5073535;28;20676;-60
2022/06/25 11:14:01;;;;;;;1.42;1.27;;;28.00;73.60;;;;;;5073110;28;20205;-60
2022/06/25 11:16:28;;;;;;;2.70;1.23;;;28.10;73.40;;;;;;5073147;28;20673;-57
2022/06/25 11:18:57;;;;;;;3.30;1.40;;;28.30;72.80;;;;;;5072704;28;20205;-57
2022/06/25 11:21:30;;;;;;;1.60;1.30;;;28.40;72.70;;;;;;5072956;28;20632;-57
2022/06/25 11:24:20;;;;;;;1.90;1.17;;;28.60;71.40;;;;;;5072935;28;20227;-57
2022/06/25 11:29:37;;;;;;;2.47;1.10;;;29.00;70.90;;;;;;5073226;28;20663;-57
2022/06/25 11:32:05;;;;;;;3.05;1.20;;;29.40;70.70;;;;;;5072948;28;20673;-58
2022/06/25 11:34:32;;;;;;;3.72;2.13;;;29.50;70.00;;;;;;5073422;28;20225;-57
2022/06/25 11:37:05;;;;;;;2.70;1.30;;;29.60;69.70;;;;;;5072774;28;20197;-57
2022/06/25 11:39:32;;;;;;;1.15;1.00;;;29.70;68.30;;;;;;5073047;28;20225;-58
2022/06/25 11:42:00;;;;;;;2.80;1.20;;;29.80;68.30;;;;;;5073174;28;20204;-57
2022/06/25 11:44:27;;;;;;;1.27;1.02;;;29.70;67.60;;;;;;5073059;28;20335;-58
2022/06/25 11:46:55;;;;;;;1.67;1.20;;;29.70;67.50;;;;;;5073401;28;20232;-59
2022/06/25 11:49:22;;;;;;;1.92;1.05;;;29.60;67.40;;;;;;5072884;28;20258;-60
2022/06/25 11:51:51;;;;;;;2.13;1.00;;;29.60;66.90;;;;;;5072831;28;20205;-57
2022/06/25 11:54:24;;;;;;;2.55;1.30;;;29.60;67.40;;;;;;5072657;28;20237;-57
2022/06/25 11:56:53;;;;;;;2.67;1.50;;;29.60;67.40;;;;;;5072762;28;20684;-58
2022/06/25 11:59:27;;;;;;;3.70;1.15;;;29.60;68.20;;;;;;5073411;28;20334;-59
2022/06/25 12:01:56;;;;;;;1.70;1.60;;;29.70;67.10;;;;;;5073869;28;20203;-58
2022/06/25 12:04:23;;;;;;;1.63;1.00;;;29.80;67.00;;;;;;5076686;28;20227;-57
2022/06/25 12:06:50;;;;;;;2.15;1.30;;;29.90;65.60;;;;;;5076601;28;20205;-57
2022/06/25 12:09:19;;;;;;;2.92;1.00;;;29.80;65.90;;;;;;5076957;28;20935;-58
2022/06/25 12:11:52;;;;;;;1.58;0.90;;;29.70;66.30;;;;;;5076550;28;20669;-58
2022/06/25 12:14:24;;;;;;;1.80;1.40;;;29.30;66.80;;;;;;5076825;28;20270;-57
2022/06/25 12:16:51;;;;;;;2.60;1.42;;;28.80;68.40;;;;;;5076972;28;20230;-58
2022/06/25 12:19:20;;;;;;;1.30;1.08;;;28.60;67.70;;;;;;5076893;28;20345;-57
2022/06/25 12:21:47;;;;;;;3.72;1.25;;;28.60;67.20;;;;;;5076881;28;20215;-59
2022/06/25 12:24:15;;;;;;;1.40;1.00;;;28.60;67.40;;;;;;5076206;28;20208;-59
2022/06/25 12:26:50;;;;;;;3.13;1.30;;;28.50;66.80;;;;;;5076148;28;20204;-57
2022/06/25 12:29:19;;;;;;;3.08;1.30;;;28.50;67.30;;;;;;5076512;28;20212;-59
2022/06/25 12:31:53;;;;;;;4.20;1.10;;;28.20;67.90;;;;;;5076377;28;20581;-58
2022/06/25 12:34:21;;;;;;;2.45;0.93;;;28.10;69.40;;;;;;5076584;28;20320;-57
2022/06/25 12:36:49;;;;;;;1.13;0.90;;;28.30;67.50;;;;;;5076006;28;20208;-57
2022/06/25 12:39:35;;;;;;;2.03;1.05;;;28.60;66.60;;;;;;5076263;28;20208;-57
2022/06/25 12:42:08;;;;;;;2.15;1.10;;;28.80;65.60;;;;;;5076214;28;20208;-57
2022/06/25 12:44:37;;;;;;;1.60;1.00;;;28.70;65.60;;;;;;5075936;28;20229;-59
2022/06/25 12:47:06;;;;;;;1.00;0.80;;;28.70;65.50;;;;;;5075484;28;20258;-58
2022/06/25 12:49:50;;;;;;;1.05;0.90;;;28.70;64.90;;;;;;5075823;28;20713;-58
2022/06/25 12:52:19;;;;;;;2.53;0.90;;;28.80;63.60;;;;;;5075659;28;20204;-58
2022/06/25 12:54:48;;;;;;;1.13;1.02;;;28.80;63.50;;;;;;5075272;28;20319;-58
2022/06/25 12:57:24;;;;;;;4.30;1.23;;;28.80;63.50;;;;;;5075730;28;20614;-57
2022/06/25 12:59:52;;;;;;;2.25;1.20;;;28.90;63.30;;;;;;5075578;28;20215;-58
2022/06/25 13:02:19;;;;;;;2.25;1.10;;;29.10;62.90;;;;;;5074999;28;20201;-57
2022/06/25 13:04:48;;;;;;;2.35;1.10;;;29.30;62.30;;;;;;5075319;28;20225;-58
2022/06/25 13:07:15;;;;;;;2.55;1.15;;;29.50;62.20;;;;;;5075852;28;20205;-58